createdAt,value
2023-04-06T00:02:03.792Z,86.40
2023-04-06T00:04:31.660Z,86.50
2023-04-06T00:06:59.501Z,86.50
2023-04-06T00:09:30.520Z,86.50
2023-04-06T00:11:59.426Z,86.60
2023-04-06T00:14:27.256Z,86.60
2023-04-06T00:16:57.643Z,86.70
2023-04-06T00:19:25.598Z,86.60
2023-04-06T00:21:53.574Z,86.70
2023-04-06T00:24:21.452Z,86.70
2023-04-06T00:26:49.326Z,86.90
2023-04-06T00:29:17.183Z,87.10
2023-04-06T00:31:45.152Z,86.90
2023-04-06T00:34:15.860Z,86.80
2023-04-06T00:36:43.783Z,86.90
2023-04-06T00:39:12.119Z,86.90
2023-04-06T00:41:43.738Z,86.90
2023-04-06T00:44:11.628Z,86.90
2023-04-06T00:46:39.500Z,87.00
2023-04-06T00:49:07.749Z,87.10
2023-04-06T00:51:37.215Z,87.10
2023-04-06T00:54:06.022Z,87.10
2023-04-06T00:56:34.167Z,87.10
2023-04-06T00:59:02.085Z,87.10
2023-04-06T01:01:31.056Z,87.20
2023-04-06T01:03:58.994Z,87.30
2023-04-06T01:06:27.238Z,87.90
2023-04-06T01:08:56.636Z,87.20
2023-04-06T01:11:24.497Z,87.20
2023-04-06T01:13:52.362Z,87.20
2023-04-06T01:16:20.316Z,87.10
2023-04-06T01:18:48.204Z,88.00
2023-04-06T01:21:17.208Z,87.20
2023-04-06T01:23:48.057Z,87.20
2023-04-06T01:26:15.987Z,87.20
2023-04-06T01:28:45.170Z,87.20
2023-04-06T01:31:13.088Z,87.20
2023-04-06T01:33:40.957Z,87.20
2023-04-06T01:36:09.441Z,87.20
2023-04-06T01:38:37.344Z,87.20
2023-04-06T01:41:06.767Z,87.20
2023-04-06T01:43:34.649Z,87.20
2023-04-06T01:46:03.027Z,87.20
2023-04-06T01:48:31.028Z,88.10
2023-04-06T01:50:58.875Z,87.30
2023-04-06T01:53:26.853Z,87.30
2023-04-06T01:55:54.716Z,87.30
2023-04-06T01:58:24.013Z,87.30
2023-04-06T02:00:52.118Z,87.40
2023-04-06T02:03:20.953Z,87.50
2023-04-06T02:05:48.846Z,87.50
2023-04-06T02:08:16.784Z,87.40
2023-04-06T02:10:44.579Z,87.60
2023-04-06T02:13:12.374Z,87.50
2023-04-06T02:15:41.614Z,87.50
2023-04-06T02:18:10.505Z,87.60
2023-04-06T02:20:38.427Z,87.50
2023-04-06T02:23:06.254Z,87.60
2023-04-06T02:25:34.286Z,87.80
2023-04-06T02:28:02.112Z,87.70
2023-04-06T02:30:30.244Z,87.60
2023-04-06T02:32:59.447Z,87.70
2023-04-06T02:35:27.373Z,87.70
2023-04-06T02:37:55.844Z,87.70
2023-04-06T02:40:23.691Z,87.80
2023-04-06T02:42:51.493Z,87.90
2023-04-06T02:45:19.328Z,87.80
2023-04-06T02:47:47.217Z,87.80
2023-04-06T02:50:16.653Z,87.80
2023-04-06T02:52:44.597Z,88.60
2023-04-06T02:55:12.438Z,87.90
2023-04-06T02:57:40.288Z,88.00
2023-04-06T03:00:09.655Z,88.00
2023-04-06T03:02:37.585Z,88.00
2023-04-06T03:05:06.171Z,88.00
2023-04-06T03:07:35.673Z,88.00
2023-04-06T03:10:03.548Z,88.10
2023-04-06T03:12:31.463Z,88.10
2023-04-06T03:14:59.343Z,88.20
2023-04-06T03:17:27.198Z,88.20
2023-04-06T03:19:55.061Z,88.20
2023-04-06T03:22:22.891Z,88.20
2023-04-06T03:24:52.097Z,88.20
2023-04-06T03:27:19.939Z,88.30
2023-04-06T03:29:47.804Z,88.30
2023-04-06T03:32:15.659Z,88.30
2023-04-06T03:34:43.528Z,89.10
2023-04-06T03:37:11.401Z,88.40
2023-04-06T03:39:39.310Z,88.50
2023-04-06T03:42:08.622Z,88.50
2023-04-06T03:44:36.516Z,88.50
2023-04-06T03:47:04.378Z,88.50
2023-04-06T03:49:32.314Z,88.50
2023-04-06T03:52:00.187Z,88.50
2023-04-06T03:54:28.019Z,88.50
2023-04-06T03:56:56.012Z,88.50
2023-04-06T03:59:25.416Z,88.50
2023-04-06T04:01:53.354Z,88.50
2023-04-06T04:04:21.329Z,88.50
2023-04-06T04:06:49.244Z,88.50
2023-04-06T04:09:17.121Z,88.50
2023-04-06T04:11:45.038Z,88.50
2023-04-06T04:14:12.848Z,88.50
2023-04-06T04:16:42.736Z,88.40
2023-04-06T04:19:11.061Z,88.50
2023-04-06T04:21:45.244Z,88.50
2023-04-06T04:24:13.167Z,88.50
2023-04-06T04:26:41.861Z,88.50
2023-04-06T04:29:09.975Z,88.50
2023-04-06T04:31:38.019Z,88.40
2023-04-06T04:34:07.688Z,88.40
2023-04-06T04:36:35.538Z,88.40
2023-04-06T04:39:03.597Z,88.30
2023-04-06T04:41:32.110Z,88.30
2023-04-06T04:43:59.947Z,88.40
2023-04-06T04:46:27.861Z,88.30
2023-04-06T04:48:55.790Z,88.40
2023-04-06T04:51:25.578Z,88.40
2023-04-06T04:53:56.300Z,88.50
2023-04-06T04:56:24.130Z,88.60
2023-04-06T04:58:52.005Z,88.50
2023-04-06T05:01:19.908Z,88.50
2023-04-06T05:03:48.366Z,88.60
2023-04-06T05:06:16.376Z,88.70
2023-04-06T05:08:45.667Z,88.80
2023-04-06T05:11:13.749Z,88.80
2023-04-06T05:13:41.628Z,89.60
2023-04-06T05:16:09.605Z,88.70
2023-04-06T05:18:37.551Z,88.80
2023-04-06T05:21:08.212Z,88.90
2023-04-06T05:23:36.094Z,88.90
2023-04-06T05:26:05.522Z,88.90
2023-04-06T05:28:33.957Z,88.80
2023-04-06T05:31:05.090Z,88.90
2023-04-06T05:33:32.983Z,88.90
2023-04-06T05:36:01.919Z,88.80
2023-04-06T05:38:30.050Z,88.90
2023-04-06T05:40:57.906Z,88.80
2023-04-06T05:43:27.149Z,88.90
2023-04-06T05:45:55.328Z,88.90
2023-04-06T05:48:23.126Z,88.90
2023-04-06T05:50:51.799Z,88.90
2023-04-06T05:53:19.732Z,88.90
2023-04-06T05:55:47.526Z,88.90
2023-04-06T05:58:15.393Z,88.90
2023-04-06T06:00:46.713Z,88.90
2023-04-06T06:03:16.079Z,88.90
2023-04-06T06:05:43.935Z,89.00
2023-04-06T06:08:12.190Z,89.10
2023-04-06T06:10:41.142Z,89.10
2023-04-06T06:13:09.332Z,89.10
2023-04-06T06:15:37.298Z,89.10
2023-04-06T06:18:07.130Z,89.20
2023-04-06T06:20:35.020Z,89.10
2023-04-06T06:23:02.977Z,89.20
2023-04-06T06:25:31.740Z,89.30
2023-04-06T06:28:00.148Z,89.20
2023-04-06T06:30:28.047Z,89.30
2023-04-06T06:32:56.095Z,89.40
2023-04-06T06:35:25.456Z,89.40
2023-04-06T06:37:53.314Z,89.20
2023-04-06T06:40:24.694Z,89.20
2023-04-06T06:42:53.132Z,89.20
2023-04-06T06:45:21.209Z,89.30
2023-04-06T06:47:49.215Z,89.20
2023-04-06T06:50:17.272Z,89.20
2023-04-06T06:52:46.469Z,89.20
2023-04-06T06:55:14.357Z,88.80
2023-04-06T06:57:43.406Z,88.90
2023-04-06T07:00:14.102Z,88.80
2023-04-06T07:02:42.310Z,88.70
2023-04-06T07:05:24.396Z,88.50
2023-04-06T07:07:56.939Z,88.60
2023-04-06T07:10:24.985Z,88.80
2023-04-06T07:12:52.917Z,88.50
2023-04-06T07:15:20.769Z,88.40
2023-04-06T07:17:48.642Z,88.30
2023-04-06T07:20:19.587Z,88.20
2023-04-06T07:22:47.429Z,88.10
2023-04-06T07:25:16.837Z,88.00
2023-04-06T07:27:45.019Z,87.80
2023-04-06T07:30:15.604Z,87.80
2023-04-06T07:32:43.435Z,87.80
2023-04-06T07:35:11.256Z,87.80
2023-04-06T07:37:39.154Z,87.90
2023-04-06T07:40:08.345Z,87.90
2023-04-06T07:42:37.692Z,88.10
2023-04-06T07:45:06.373Z,87.90
2023-04-06T07:47:34.252Z,88.10
2023-04-06T07:50:02.100Z,88.50
2023-04-06T07:52:30.006Z,88.60
2023-04-06T07:54:57.805Z,89.00
2023-04-06T07:57:28.725Z,88.70
2023-04-06T07:59:57.948Z,88.80
2023-04-06T08:02:25.820Z,88.80
2023-04-06T08:04:53.990Z,88.90
2023-04-06T08:07:22.044Z,88.90
2023-04-06T08:09:49.903Z,89.00
2023-04-06T08:12:17.765Z,89.00
2023-04-06T08:14:45.625Z,89.10
2023-04-06T08:17:14.838Z,89.10
2023-04-06T08:19:44.670Z,88.90
2023-04-06T08:22:12.593Z,89.00
2023-04-06T08:24:40.599Z,89.20
2023-04-06T08:27:08.583Z,89.30
2023-04-06T08:29:36.897Z,89.10
2023-04-06T08:32:06.057Z,89.20
2023-04-06T08:34:35.963Z,89.10
2023-04-06T08:37:03.918Z,88.80
2023-04-06T08:39:31.918Z,89.00
2023-04-06T08:42:00.909Z,89.00
2023-04-06T08:44:29.028Z,89.20
2023-04-06T08:46:57.196Z,89.00
2023-04-06T08:49:28.210Z,89.50
2023-04-06T08:51:58.329Z,89.20
2023-04-06T08:54:26.263Z,89.30
2023-04-06T08:56:57.377Z,89.40
2023-04-06T08:59:26.757Z,89.20
2023-04-06T09:01:56.565Z,88.90
2023-04-06T09:04:24.621Z,88.80
2023-04-06T09:06:53.297Z,88.60
2023-04-06T09:09:24.799Z,88.50
2023-04-06T09:11:53.891Z,88.30
2023-04-06T09:14:36.264Z,88.30
2023-04-06T09:17:04.202Z,88.20
2023-04-06T09:19:32.068Z,87.70
2023-04-06T09:22:08.136Z,86.90
2023-04-06T09:24:44.952Z,85.60
2023-04-06T09:27:12.878Z,85.40
2023-04-06T09:29:41.057Z,84.60
2023-04-06T09:32:11.345Z,84.20
2023-04-06T09:34:40.066Z,84.00
2023-04-06T09:37:17.271Z,82.50
2023-04-06T09:39:47.037Z,82.00
2023-04-06T09:42:25.746Z,81.50
2023-04-06T09:44:53.942Z,80.40
2023-04-06T09:47:25.210Z,79.60
2023-04-06T09:49:59.071Z,79.40
2023-04-06T09:52:29.290Z,79.60
2023-04-06T09:55:04.109Z,78.50
2023-04-06T09:57:38.430Z,78.70
2023-04-06T10:00:10.570Z,78.70
2023-04-06T10:02:48.017Z,78.60
2023-04-06T10:05:24.725Z,78.80
2023-04-06T10:08:00.323Z,78.10
2023-04-06T10:10:31.198Z,77.70
2023-04-06T10:12:59.614Z,77.70
2023-04-06T10:15:27.715Z,77.60
2023-04-06T10:17:56.069Z,77.60
2023-04-06T10:20:29.920Z,78.40
2023-04-06T10:23:01.585Z,78.60
2023-04-06T10:25:31.577Z,76.90
2023-04-06T10:28:03.509Z,77.40
2023-04-06T10:30:32.848Z,77.10
2023-04-06T10:33:00.805Z,77.00
2023-04-06T10:35:38.974Z,76.00
2023-04-06T10:38:08.137Z,75.90
2023-04-06T10:40:41.102Z,76.40
2023-04-06T10:43:10.876Z,77.80
2023-04-06T10:45:39.504Z,77.00
2023-04-06T10:48:17.246Z,77.70
2023-04-06T10:50:46.691Z,76.70
2023-04-06T10:53:23.448Z,75.40
2023-04-06T10:55:53.963Z,75.00
2023-04-06T10:58:21.812Z,75.70
2023-04-06T11:00:51.684Z,74.10
2023-04-06T11:03:20.158Z,73.90
2023-04-06T11:05:48.958Z,72.10
2023-04-06T11:08:28.265Z,72.80
2023-04-06T11:11:11.174Z,73.00
2023-04-06T11:13:41.267Z,73.70
2023-04-06T11:16:13.736Z,74.40
2023-04-06T11:18:52.790Z,75.20
2023-04-06T11:21:21.205Z,75.40
2023-04-06T11:23:49.158Z,75.70
2023-04-06T11:26:18.504Z,76.20
2023-04-06T11:28:46.627Z,76.20
2023-04-06T11:31:14.733Z,76.60
2023-04-06T11:33:42.704Z,76.70
2023-04-06T11:36:10.967Z,76.80
2023-04-06T11:39:00.836Z,77.00
2023-04-06T11:41:32.868Z,77.50
2023-04-06T11:44:03.259Z,77.70
2023-04-06T11:46:33.491Z,77.80
2023-04-06T11:49:02.389Z,77.80
2023-04-06T11:51:30.811Z,77.90
2023-04-06T11:53:58.893Z,78.10
2023-04-06T11:56:30.356Z,78.20
2023-04-06T11:59:01.046Z,78.40
2023-04-06T12:01:39.290Z,78.50
2023-04-06T12:04:08.757Z,78.60
2023-04-06T12:06:36.733Z,78.80
2023-04-06T12:09:04.825Z,78.80
2023-04-06T12:11:37.240Z,79.00
2023-04-06T12:14:08.312Z,79.30
2023-04-06T12:16:36.415Z,79.30
2023-04-06T12:19:05.338Z,79.50
2023-04-06T12:21:33.859Z,79.60
2023-04-06T12:24:04.067Z,79.50
2023-04-06T12:26:32.594Z,79.80
2023-04-06T12:29:07.558Z,79.90
2023-04-06T12:31:37.892Z,79.80
2023-04-06T12:34:05.945Z,79.90
2023-04-06T12:36:33.863Z,80.00
2023-04-06T12:39:03.210Z,80.20
2023-04-06T12:41:31.377Z,80.20
2023-04-06T12:44:06.188Z,80.40
2023-04-06T12:46:34.115Z,80.30
2023-04-06T12:49:05.390Z,79.70
2023-04-06T12:51:33.371Z,74.60
2023-04-06T12:54:01.941Z,76.40
2023-04-06T12:56:29.922Z,77.00
2023-04-06T12:58:57.931Z,77.30
2023-04-06T13:01:28.855Z,77.30
2023-04-06T13:03:58.695Z,77.40
2023-04-06T13:06:28.368Z,77.40
2023-04-06T13:08:57.232Z,77.80
2023-04-06T13:11:28.234Z,78.00
2023-04-06T13:13:56.671Z,77.90
2023-04-06T13:16:24.637Z,78.40
2023-04-06T13:18:54.259Z,78.60
2023-04-06T13:21:23.874Z,78.80
2023-04-06T13:23:52.223Z,79.00
2023-04-06T13:26:20.944Z,79.00
2023-04-06T13:28:49.032Z,79.10
2023-04-06T13:31:17.021Z,79.10
2023-04-06T13:33:45.063Z,79.30
2023-04-06T13:36:17.383Z,79.30
2023-04-06T13:38:46.208Z,79.20
2023-04-06T13:41:21.878Z,79.20
2023-04-06T13:43:52.958Z,79.30
2023-04-06T13:46:21.152Z,79.50
2023-04-06T13:48:49.235Z,79.50
2023-04-06T13:51:21.111Z,79.70
2023-04-06T13:53:51.257Z,79.90
2023-04-06T13:56:19.051Z,80.00
2023-04-06T13:58:46.847Z,79.70
2023-04-06T14:01:14.752Z,79.50
2023-04-06T14:03:46.409Z,79.90
2023-04-06T14:06:29.681Z,79.90
2023-04-06T14:08:59.452Z,79.80
2023-04-06T14:11:27.623Z,79.80
2023-04-06T14:13:58.029Z,80.00
2023-04-06T14:16:27.298Z,80.00
2023-04-06T14:18:55.925Z,80.00
2023-04-06T14:21:23.760Z,80.20
2023-04-06T14:23:51.672Z,80.30
2023-04-06T14:26:22.139Z,80.20
2023-04-06T14:28:49.982Z,80.40
2023-04-06T14:31:18.464Z,80.30
2023-04-06T14:33:47.187Z,80.50
2023-04-06T14:36:15.741Z,80.40
2023-04-06T14:38:44.821Z,80.50
2023-04-06T14:41:18.102Z,80.60
2023-04-06T14:43:48.625Z,80.70
2023-04-06T14:46:17.722Z,80.40
2023-04-06T14:48:46.010Z,80.50
2023-04-06T14:51:13.830Z,80.70
2023-04-06T14:53:41.829Z,80.70
2023-04-06T14:56:09.689Z,81.00
2023-04-06T14:58:37.574Z,81.10
2023-04-06T15:01:07.421Z,81.00
2023-04-06T15:03:35.304Z,80.90
2023-04-06T15:06:03.201Z,81.00
2023-04-06T15:08:31.404Z,81.00
2023-04-06T15:11:01.582Z,81.20
2023-04-06T15:13:30.487Z,81.20
2023-04-06T15:15:59.865Z,81.40
2023-04-06T15:18:33.329Z,81.40
2023-04-06T15:21:01.333Z,81.40
2023-04-06T15:23:31.078Z,81.50
2023-04-06T15:25:59.230Z,81.50
2023-04-06T15:28:27.133Z,81.70
2023-04-06T15:30:56.079Z,81.70
2023-04-06T15:33:23.982Z,81.60
2023-04-06T15:35:53.196Z,81.50
2023-04-06T15:38:21.871Z,81.40
2023-04-06T15:40:50.945Z,81.40
2023-04-06T15:43:18.795Z,81.60
2023-04-06T15:45:48.619Z,81.50
2023-04-06T15:48:16.455Z,81.70
2023-04-06T15:50:51.587Z,81.70
2023-04-06T15:53:22.826Z,81.80
2023-04-06T15:55:50.666Z,81.90
2023-04-06T15:58:20.587Z,81.90
2023-04-06T16:00:51.176Z,81.90
2023-04-06T16:03:21.548Z,82.10
2023-04-06T16:08:25.658Z,82.10
2023-04-06T16:10:55.836Z,82.10
2023-04-06T16:13:23.680Z,82.10
2023-04-06T16:15:51.966Z,82.10
2023-04-06T16:18:20.322Z,82.00
2023-04-06T16:20:49.428Z,82.00
2023-04-06T16:23:17.264Z,81.90
2023-04-06T16:25:46.451Z,81.80
2023-04-06T16:28:17.140Z,82.00
2023-04-06T16:30:46.679Z,82.20
2023-04-06T16:33:16.907Z,82.10
2023-04-06T16:35:48.436Z,82.20
2023-04-06T16:38:17.235Z,82.10
2023-04-06T16:40:46.527Z,82.20
2023-04-06T16:43:15.599Z,82.20
2023-04-06T16:45:44.003Z,82.20
2023-04-06T16:48:13.414Z,82.10
2023-04-06T16:50:41.392Z,82.20
2023-04-06T16:53:10.587Z,82.20
2023-04-06T16:55:40.479Z,82.20
2023-04-06T16:58:09.723Z,82.40
2023-04-06T17:00:37.987Z,82.40
2023-04-06T17:03:06.494Z,82.40
2023-04-06T17:05:34.784Z,82.50
2023-04-06T17:08:02.871Z,82.50
2023-04-06T17:10:40.709Z,82.40
2023-04-06T17:13:11.318Z,82.40
2023-04-06T17:15:39.504Z,82.40
2023-04-06T17:18:07.531Z,82.40
2023-04-06T17:20:48.748Z,82.50
2023-04-06T17:23:16.938Z,82.40
2023-04-06T17:25:44.839Z,82.50
2023-04-06T17:28:16.136Z,82.60
2023-04-06T17:30:44.065Z,82.70
2023-04-06T17:33:13.585Z,82.60
2023-04-06T17:35:42.368Z,82.50
2023-04-06T17:38:11.822Z,82.60
2023-04-06T17:40:44.228Z,82.60
2023-04-06T17:43:13.851Z,82.60
2023-04-06T17:46:21.609Z,82.50
2023-04-06T17:48:59.593Z,82.40
2023-04-06T17:51:31.277Z,82.80
2023-04-06T17:53:59.483Z,82.70
2023-04-06T17:56:31.687Z,82.50
2023-04-06T17:59:07.753Z,83.00
2023-04-06T18:01:36.230Z,82.50
2023-04-06T18:04:21.182Z,82.50
2023-04-06T18:06:50.720Z,82.60
2023-04-06T18:09:30.472Z,82.80
2023-04-06T18:12:12.882Z,82.80
2023-04-06T18:15:18.983Z,82.90
2023-04-06T18:43:54.161Z,83.30
2023-04-06T18:46:22.558Z,83.10
2023-04-06T18:48:50.750Z,83.40
2023-04-06T18:51:19.495Z,83.50
2023-04-06T18:53:47.587Z,83.40
2023-04-06T18:56:16.648Z,83.50
2023-04-06T18:58:48.058Z,83.50
2023-04-06T19:01:23.548Z,83.50
2023-04-06T19:03:52.270Z,83.30
2023-04-06T19:10:39.121Z,83.50
2023-04-06T19:20:22.817Z,82.80
2023-04-06T19:27:11.211Z,83.10
2023-04-06T19:30:18.321Z,83.20
2023-04-06T19:49:40.481Z,83.50
2023-04-06T20:13:56.405Z,83.40
2023-04-06T20:15:56.035Z,83.40
2023-04-06T20:23:18.090Z,84.40
2023-04-06T20:26:11.120Z,84.40
2023-04-06T20:28:39.404Z,85.20
2023-04-06T20:31:13.935Z,84.70
2023-04-06T20:33:42.221Z,84.60
2023-04-06T20:36:11.208Z,84.70
2023-04-06T20:38:40.456Z,85.10
2023-04-06T20:41:08.848Z,85.30
2023-04-06T20:43:36.997Z,85.30
2023-04-06T20:46:05.550Z,85.70
2023-04-06T20:48:36.347Z,85.40
2023-04-06T20:51:05.378Z,85.50
2023-04-06T20:53:33.484Z,85.40
2023-04-06T20:56:05.391Z,85.70
2023-04-06T20:58:33.247Z,85.80
2023-04-06T21:01:01.138Z,85.80
2023-04-06T21:03:29.104Z,86.00
2023-04-06T21:06:02.569Z,85.80
2023-04-06T21:08:33.717Z,85.80
2023-04-06T21:11:01.935Z,85.80
2023-04-06T21:13:29.941Z,85.80
2023-04-06T21:15:57.840Z,86.00
2023-04-06T21:18:25.941Z,85.80
2023-04-06T21:20:53.977Z,85.70
2023-04-06T21:23:23.657Z,85.70
2023-04-06T21:25:51.891Z,85.80
2023-04-06T21:28:19.982Z,86.00
2023-04-06T21:30:47.874Z,86.30
2023-04-06T21:33:15.784Z,86.20
2023-04-06T21:35:43.802Z,86.30
2023-04-06T21:38:11.914Z,86.40
2023-04-06T21:40:41.263Z,87.60
2023-04-06T21:43:10.480Z,86.70
2023-04-06T21:45:38.381Z,86.90
2023-04-06T21:48:07.007Z,86.80
2023-04-06T21:50:34.933Z,86.70
2023-04-06T21:53:03.356Z,86.90
2023-04-06T21:55:31.279Z,86.60
2023-04-06T21:58:00.572Z,86.40
2023-04-06T22:00:34.666Z,86.90
2023-04-06T22:03:03.128Z,86.40
2023-04-06T22:05:31.262Z,86.70
2023-04-06T22:08:25.526Z,86.40
2023-04-06T22:11:02.527Z,86.40
2023-04-06T22:13:34.059Z,86.50
2023-04-06T22:16:07.244Z,86.60
2023-04-06T22:18:37.312Z,86.50
2023-04-06T22:21:06.997Z,86.30
2023-04-06T22:23:50.680Z,86.30
2023-04-06T22:26:23.878Z,86.50
2023-04-06T22:29:06.803Z,86.20
2023-04-06T22:31:42.278Z,86.40
2023-04-06T22:34:13.263Z,86.10
2023-04-06T22:36:54.339Z,86.00
2023-04-06T22:39:22.363Z,86.20
2023-04-06T22:41:50.670Z,86.60
2023-04-06T22:44:43.272Z,86.30
2023-04-06T22:47:20.325Z,86.40
2023-04-06T22:49:50.322Z,86.30
2023-04-06T22:52:20.705Z,86.20
2023-04-06T22:54:48.831Z,86.50
2023-04-06T22:57:24.562Z,86.20
2023-04-06T22:59:53.866Z,86.40
2023-04-06T23:02:21.843Z,86.40
2023-04-06T23:04:49.911Z,86.90
2023-04-06T23:07:18.078Z,86.80
2023-04-06T23:09:46.171Z,86.70
2023-04-06T23:12:14.122Z,86.80
2023-04-06T23:14:42.237Z,86.90
2023-04-06T23:17:12.082Z,86.60
2023-04-06T23:19:40.702Z,86.50
2023-04-06T23:22:08.585Z,86.40
2023-04-06T23:24:36.483Z,86.40
2023-04-06T23:27:04.523Z,86.50
2023-04-06T23:29:32.386Z,86.50
2023-04-06T23:32:00.370Z,86.60
2023-04-06T23:34:29.744Z,86.70
2023-04-06T23:37:01.210Z,87.00
2023-04-06T23:39:29.107Z,86.70
2023-04-06T23:41:57.699Z,86.40
2023-04-06T23:44:26.178Z,86.50
2023-04-06T23:46:54.013Z,86.40
2023-04-06T23:49:21.860Z,86.70
2023-04-06T23:51:51.270Z,86.80
2023-04-06T23:54:19.280Z,86.70
2023-04-06T23:56:47.220Z,86.70
2023-04-06T23:59:15.040Z,86.50
